Time;durP1;ratioP1;P1;durP2;ratioP2;P2;SDS_P1;SDS_P2;PMS_P1;PMS_P2;Temp;Humidity;BMP_temperature;BMP_pressure;BME280_temperature;BME280_humidity;BME280_pressure;Samples;Min_cycle;Max_cycle;Signal;HPM_P1;HPM_P2
2021/06/15 00:01:50;;;;;;;15.63;12.53;;;16.40;99.90;;;;;;6136848;23;20566;-67
2021/06/15 00:04:15;;;;;;;14.73;12.20;;;16.50;99.90;;;;;;6136804;23;20593;-67
2021/06/15 00:06:41;;;;;;;15.70;12.80;;;16.60;99.90;;;;;;6150174;23;20230;-67
2021/06/15 00:09:07;;;;;;;22.50;13.60;;;16.50;99.90;;;;;;6136704;23;20192;-67
2021/06/15 00:11:32;;;;;;;18.60;12.83;;;16.50;99.90;;;;;;6125775;23;20163;-67
2021/06/15 00:13:58;;;;;;;18.50;12.17;;;16.40;99.90;;;;;;6136827;23;20150;-67
2021/06/15 00:16:23;;;;;;;19.43;12.90;;;16.50;99.90;;;;;;6136604;23;20469;-67
2021/06/15 00:18:49;;;;;;;19.30;12.27;;;16.50;99.90;;;;;;6149935;23;20203;-67
2021/06/15 00:21:14;;;;;;;13.27;11.50;;;16.50;99.90;;;;;;6136722;23;20179;-67
2021/06/15 00:23:40;;;;;;;17.03;11.10;;;16.50;99.90;;;;;;6125698;23;20154;-67
2021/06/15 00:26:05;;;;;;;19.03;13.07;;;16.60;99.90;;;;;;6136921;23;20163;-67
2021/06/15 00:28:31;;;;;;;17.03;12.70;;;16.50;99.90;;;;;;6126961;23;20246;-67
2021/06/15 00:30:57;;;;;;;15.33;11.50;;;16.50;99.90;;;;;;6136718;23;20174;-67
2021/06/15 00:33:22;;;;;;;13.17;11.20;;;16.60;99.90;;;;;;6136686;23;20166;-67
2021/06/15 00:35:48;;;;;;;17.67;12.10;;;16.60;99.90;;;;;;6125571;23;20163;-67
2021/06/15 00:38:13;;;;;;;14.10;11.80;;;16.70;99.90;;;;;;6136115;23;20158;-67
2021/06/15 00:40:39;;;;;;;17.90;11.30;;;16.60;99.90;;;;;;6136468;23;20649;-67
2021/06/15 00:43:04;;;;;;;15.57;11.83;;;16.60;99.90;;;;;;6136587;23;20161;-67
2021/06/15 00:45:32;;;;;;;17.90;12.03;;;16.50;99.90;;;;;;6135893;23;20166;-67
2021/06/15 00:47:59;;;;;;;14.43;11.60;;;16.50;99.90;;;;;;6136417;23;20147;-67
2021/06/15 00:50:27;;;;;;;13.40;10.03;;;16.50;99.90;;;;;;6126974;23;20482;-67
2021/06/15 00:52:53;;;;;;;18.97;10.40;;;16.40;99.90;;;;;;6136511;23;20478;-67
2021/06/15 00:55:20;;;;;;;12.00;10.37;;;16.50;99.90;;;;;;6136544;23;20397;-67
2021/06/15 00:57:46;;;;;;;15.70;10.37;;;16.50;99.90;;;;;;6136462;23;20395;-67
2021/06/15 01:00:12;;;;;;;13.23;10.63;;;16.30;99.90;;;;;;6136293;23;20525;-67
2021/06/15 01:02:38;;;;;;;17.07;10.17;;;16.40;99.90;;;;;;6136470;23;20155;-67
2021/06/15 01:05:07;;;;;;;15.87;10.07;;;16.40;99.90;;;;;;6127154;23;20686;-67
2021/06/15 01:07:58;;;;;;;14.67;10.33;;;16.50;99.90;;;;;;6136429;23;20155;-67
2021/06/15 01:10:44;;;;;;;17.30;9.80;;;16.70;99.90;;;;;;6070847;23;20880;-67
2021/06/15 01:13:24;;;;;;;13.87;10.33;;;16.80;99.90;;;;;;6136675;23;20555;-67
2021/06/15 01:16:13;;;;;;;22.00;10.67;;;16.60;99.90;;;;;;6136449;23;20418;-67
2021/06/15 01:18:45;;;;;;;12.13;9.67;;;16.60;99.90;;;;;;6136150;23;20375;-67
2021/06/15 01:21:12;;;;;;;15.20;8.93;;;16.60;99.90;;;;;;6127009;23;20371;-67
2021/06/15 01:23:49;;;;;;;11.63;9.43;;;16.40;99.90;;;;;;6126901;23;20401;-67
2021/06/15 01:26:51;;;;;;;12.03;8.87;;;16.30;99.90;;;;;;6126974;23;20375;-67
2021/06/15 01:29:27;;;;;;;17.53;8.33;;;16.40;99.90;;;;;;6125274;23;20397;-67
2021/06/15 01:31:57;;;;;;;15.70;8.70;;;16.30;99.90;;;;;;6136425;23;20441;-67
2021/06/15 01:34:32;;;;;;;13.23;8.50;;;16.20;99.90;;;;;;6126681;23;20405;-67
2021/06/15 01:37:01;;;;;;;9.97;7.83;;;16.30;99.90;;;;;;6136269;23;20405;-67
2021/06/15 01:39:29;;;;;;;14.03;8.07;;;16.40;99.90;;;;;;6136034;23;20422;-67
2021/06/15 01:42:01;;;;;;;12.27;7.07;;;16.30;99.90;;;;;;6149946;23;20394;-67
2021/06/15 01:44:30;;;;;;;16.33;8.70;;;16.30;99.90;;;;;;6125395;23;20917;-67
2021/06/15 01:47:04;;;;;;;14.97;8.87;;;16.30;99.90;;;;;;6136185;23;20387;-67
2021/06/15 01:49:39;;;;;;;14.73;8.37;;;16.30;99.90;;;;;;6136291;23;20469;-67
2021/06/15 01:52:08;;;;;;;9.53;7.63;;;16.40;99.90;;;;;;6138168;23;20809;-67
2021/06/15 01:54:35;;;;;;;14.57;8.77;;;16.60;99.90;;;;;;6138012;23;20386;-67
2021/06/15 01:57:01;;;;;;;15.40;6.53;;;16.60;99.90;;;;;;6137895;23;20398;-67
2021/06/15 01:59:27;;;;;;;11.93;7.23;;;16.30;99.90;;;;;;6128323;23;20427;-66
2021/06/15 02:01:57;;;;;;;10.80;7.60;;;16.30;99.90;;;;;;6128188;23;20163;-66
2021/06/15 02:04:27;;;;;;;11.37;6.63;;;16.40;99.90;;;;;;6128586;23;20387;-66
2021/06/15 02:06:54;;;;;;;12.30;7.23;;;16.30;99.90;;;;;;6128394;23;20379;-66
2021/06/15 02:09:22;;;;;;;16.40;8.17;;;16.20;99.90;;;;;;6138247;23;20391;-66
2021/06/15 02:11:48;;;;;;;10.10;7.93;;;16.30;99.90;;;;;;6138707;23;20386;-67
2021/06/15 02:14:18;;;;;;;13.43;6.63;;;16.30;99.90;;;;;;6151463;23;20405;-67
2021/06/15 02:16:50;;;;;;;15.03;7.20;;;16.20;99.90;;;;;;6127959;23;20854;-67
2021/06/15 02:19:20;;;;;;;11.50;7.20;;;16.20;99.90;;;;;;6151314;23;20437;-66
2021/06/15 02:21:56;;;;;;;15.00;7.43;;;16.10;99.90;;;;;;6138054;23;20413;-67
2021/06/15 02:24:27;;;;;;;10.00;7.13;;;16.10;99.90;;;;;;6151822;23;20430;-66
2021/06/15 02:26:52;;;;;;;10.50;6.70;;;16.10;99.90;;;;;;6128622;23;20433;-67
2021/06/15 02:29:18;;;;;;;11.53;6.53;;;16.00;99.90;;;;;;6137666;23;20421;-66
2021/06/15 02:31:54;;;;;;;16.20;7.20;;;15.90;99.90;;;;;;6151899;23;20197;-66
2021/06/15 02:34:21;;;;;;;12.53;6.27;;;15.80;99.90;;;;;;6151632;23;20390;-65
2021/06/15 02:36:49;;;;;;;15.00;8.00;;;15.90;99.90;;;;;;6128083;23;20418;-65
2021/06/15 02:39:33;;;;;;;12.63;6.03;;;15.80;99.90;;;;;;6137358;23;20521;-65
2021/06/15 02:42:00;;;;;;;15.97;7.00;;;15.80;99.90;;;;;;6137785;23;20399;-65
2021/06/15 02:44:31;;;;;;;11.00;5.77;;;16.10;99.90;;;;;;6137547;23;20419;-65
2021/06/15 02:46:58;;;;;;;12.27;6.43;;;15.90;99.90;;;;;;6128011;23;20379;-65
2021/06/15 02:49:30;;;;;;;13.60;6.80;;;15.90;99.90;;;;;;6137385;23;20466;-65
2021/06/15 02:52:09;;;;;;;12.50;6.30;;;16.10;99.90;;;;;;6137592;23;20386;-65
2021/06/15 02:54:40;;;;;;;7.27;5.70;;;16.10;99.90;;;;;;6137713;23;20393;-65
2021/06/15 02:57:07;;;;;;;11.20;6.30;;;16.20;99.90;;;;;;6137578;23;20407;-65
2021/06/15 02:59:36;;;;;;;10.70;7.37;;;16.20;99.90;;;;;;6126338;23;20500;-65
2021/06/15 03:02:01;;;;;;;15.00;6.63;;;16.00;99.90;;;;;;6137621;23;20426;-65
2021/06/15 03:04:27;;;;;;;15.17;7.00;;;16.10;99.90;;;;;;6150905;23;20398;-65
2021/06/15 03:06:52;;;;;;;13.40;6.30;;;16.30;99.90;;;;;;6137688;23;20155;-67
2021/06/15 03:09:18;;;;;;;12.03;6.60;;;16.40;99.90;;;;;;6137418;23;20155;-67
2021/06/15 03:11:54;;;;;;;12.97;7.10;;;16.20;99.90;;;;;;6137759;23;20498;-67
2021/06/15 03:14:26;;;;;;;9.47;6.20;;;16.20;99.90;;;;;;6137211;23;20401;-67
2021/06/15 03:17:02;;;;;;;8.67;5.37;;;16.20;99.90;;;;;;6137226;23;20390;-67
2021/06/15 03:19:32;;;;;;;8.83;5.40;;;16.20;99.90;;;;;;6127926;23;20837;-67
2021/06/15 03:22:12;;;;;;;12.80;6.43;;;16.10;99.90;;;;;;6137241;23;20382;-67
2021/06/15 03:24:43;;;;;;;9.30;6.10;;;16.30;99.90;;;;;;6137243;23;20367;-67
2021/06/15 03:27:12;;;;;;;13.20;5.20;;;16.40;99.90;;;;;;6127552;23;20446;-67
2021/06/15 03:29:39;;;;;;;9.90;4.90;;;16.20;99.90;;;;;;6127131;23;20410;-67
2021/06/15 03:32:21;;;;;;;11.73;5.30;;;16.40;99.90;;;;;;6127668;23;20736;-67
2021/06/15 03:34:50;;;;;;;6.03;4.13;;;16.30;99.90;;;;;;6127687;23;20389;-67
2021/06/15 03:37:23;;;;;;;10.23;3.75;;;16.20;99.90;;;;;;6150373;23;20493;-67
2021/06/15 03:39:51;;;;;;;10.83;4.40;;;15.90;99.90;;;;;;6127369;23;20175;-66
2021/06/15 03:42:28;;;;;;;9.93;4.17;;;15.70;99.90;;;;;;6127696;23;20390;-66
2021/06/15 03:45:13;;;;;;;8.33;3.60;;;15.80;99.90;;;;;;6136990;23;20853;-66
2021/06/15 03:47:41;;;;;;;5.47;3.27;;;16.10;99.90;;;;;;6126920;23;20441;-66
2021/06/15 03:50:08;;;;;;;9.30;4.20;;;16.10;99.90;;;;;;6136757;23;20426;-66
2021/06/15 03:52:36;;;;;;;11.90;4.17;;;15.90;99.90;;;;;;6127328;23;20402;-66
2021/06/15 03:55:07;;;;;;;8.60;3.13;;;15.80;99.90;;;;;;6127356;23;20395;-66
2021/06/15 03:57:40;;;;;;;9.03;3.40;;;15.70;99.90;;;;;;6136698;23;20670;-66
2021/06/15 04:00:07;;;;;;;6.40;4.90;;;15.80;99.90;;;;;;6127199;23;20716;-65
2021/06/15 04:02:37;;;;;;;7.45;3.72;;;15.50;99.90;;;;;;6135529;23;20387;-67
2021/06/15 04:05:04;;;;;;;10.70;3.77;;;15.60;99.90;;;;;;6136811;23;20151;-66
2021/06/15 04:07:31;;;;;;;8.97;3.63;;;15.50;99.90;;;;;;6150344;23;20497;-66
2021/06/15 04:09:57;;;;;;;6.13;3.43;;;15.50;99.90;;;;;;6136585;23;20735;-66
2021/06/15 04:12:25;;;;;;;7.00;3.33;;;15.80;99.90;;;;;;6136399;23;20395;-66
2021/06/15 04:14:52;;;;;;;11.17;5.23;;;15.70;99.90;;;;;;6136403;23;20773;-65
2021/06/15 04:17:22;;;;;;;6.50;3.50;;;15.60;99.90;;;;;;6126926;23;20414;-66
2021/06/15 04:19:53;;;;;;;11.40;4.60;;;15.50;99.90;;;;;;6136397;23;20415;-65
2021/06/15 04:22:20;;;;;;;7.83;3.90;;;15.30;99.90;;;;;;6136730;23;20389;-65
2021/06/15 04:24:49;;;;;;;9.13;3.17;;;15.30;99.90;;;;;;6136622;23;20689;-65
2021/06/15 04:27:20;;;;;;;8.70;3.60;;;15.40;99.90;;;;;;6136483;23;20479;-65
2021/06/15 04:29:47;;;;;;;7.83;3.60;;;15.40;99.90;;;;;;6127079;23;20434;-65
2021/06/15 04:32:14;;;;;;;13.63;4.17;;;15.40;99.90;;;;;;6127250;23;20814;-65
2021/06/15 04:34:44;;;;;;;7.70;3.70;;;15.30;99.90;;;;;;6136803;23;20837;-65
2021/06/15 04:37:11;;;;;;;7.83;4.10;;;15.20;99.90;;;;;;6136586;23;20456;-65
2021/06/15 04:39:53;;;;;;;6.60;4.27;;;15.20;99.90;;;;;;6126589;23;20574;-66
2021/06/15 04:42:30;;;;;;;9.10;4.07;;;15.30;99.90;;;;;;6127167;23;20367;-66
2021/06/15 04:44:56;;;;;;;6.82;3.90;;;15.30;99.90;;;;;;6126795;23;20386;-66
2021/06/15 04:47:26;;;;;;;7.63;3.77;;;15.20;99.90;;;;;;6136555;23;20158;-66
2021/06/15 04:50:04;;;;;;;8.02;4.20;;;15.20;99.90;;;;;;6136444;23;20401;-66
2021/06/15 04:52:32;;;;;;;8.67;4.80;;;15.20;99.90;;;;;;6136895;23;20209;-66
2021/06/15 04:55:00;;;;;;;6.57;3.90;;;15.20;99.90;;;;;;6136577;23;20386;-66
2021/06/15 04:57:28;;;;;;;6.03;3.55;;;15.20;99.90;;;;;;6136487;23;20395;-66
2021/06/15 04:59:57;;;;;;;13.07;4.87;;;15.20;99.90;;;;;;6136303;23;20179;-66
2021/06/15 05:02:25;;;;;;;11.50;5.00;;;15.20;99.90;;;;;;6126685;23;20685;-66
2021/06/15 05:04:53;;;;;;;6.95;4.22;;;15.30;99.90;;;;;;6136455;23;20401;-67
2021/06/15 05:07:20;;;;;;;9.37;4.00;;;15.30;99.90;;;;;;6136375;23;20166;-66
2021/06/15 05:09:51;;;;;;;11.67;4.10;;;15.30;99.90;;;;;;6126810;23;20391;-66
2021/06/15 05:12:19;;;;;;;14.23;4.43;;;15.30;99.90;;;;;;6136557;23;20682;-66
2021/06/15 05:14:45;;;;;;;8.52;3.40;;;15.40;99.90;;;;;;6126740;23;20406;-66
2021/06/15 05:17:14;;;;;;;6.57;3.47;;;15.30;99.90;;;;;;6126543;23;20674;-66
2021/06/15 05:19:40;;;;;;;11.20;4.17;;;15.20;99.90;;;;;;6135931;23;20924;-66
2021/06/15 05:22:20;;;;;;;6.97;3.27;;;15.40;99.90;;;;;;6136403;23;20599;-66
2021/06/15 05:24:46;;;;;;;6.73;2.87;;;15.60;99.90;;;;;;6136704;23;20583;-66
2021/06/15 05:27:12;;;;;;;9.93;3.73;;;15.30;99.90;;;;;;6138169;23;20387;-66
2021/06/15 05:29:38;;;;;;;11.33;3.97;;;15.30;99.90;;;;;;6128621;23;20163;-66
2021/06/15 05:32:07;;;;;;;10.57;4.47;;;15.50;99.90;;;;;;6138154;23;20430;-66
2021/06/15 05:34:36;;;;;;;7.47;3.40;;;15.70;99.90;;;;;;6138120;23;20155;-66
2021/06/15 05:37:03;;;;;;;6.23;3.40;;;16.20;99.90;;;;;;6152007;23;20430;-66
2021/06/15 05:39:29;;;;;;;6.80;4.10;;;16.50;61.10;;;;;;6151535;23;20433;-66
2021/06/15 05:41:55;;;;;;;4.73;3.40;;;16.70;1.00;;;;;;6138048;23;20406;-66
2021/06/15 05:44:21;;;;;;;11.00;3.40;;;16.30;1.00;;;;;;6138031;23;20680;-66
2021/06/15 05:46:46;;;;;;;8.83;3.57;;;15.90;1.00;;;;;;6151443;23;20154;-65
2021/06/15 05:49:12;;;;;;;4.77;2.70;;;15.90;1.00;;;;;;6137887;23;20219;-65
2021/06/15 05:51:39;;;;;;;9.63;2.33;;;15.90;1.00;;;;;;6138011;23;20169;-65
2021/06/15 05:54:05;;;;;;;5.10;2.47;;;15.80;1.00;;;;;;6128505;23;20182;-65
2021/06/15 05:56:30;;;;;;;7.50;2.83;;;15.60;1.00;;;;;;6137890;23;20426;-65
2021/06/15 05:58:56;;;;;;;7.70;3.50;;;15.80;1.00;;;;;;6151209;23;20763;-65
2021/06/15 06:01:22;;;;;;;8.87;3.00;;;16.20;1.00;;;;;;6127637;23;20453;-66
2021/06/15 06:04:06;;;;;;;8.10;3.00;;;15.80;1.00;;;;;;6128204;23;20178;-65
2021/06/15 06:09:16;;;;;;;4.47;2.07;;;16.20;99.90;;;;;;6127944;23;20385;-65
2021/06/15 06:11:42;;;;;;;6.93;2.30;;;16.50;99.90;;;;;;6137765;23;20700;-65
2021/06/15 06:14:07;;;;;;;10.70;3.57;;;17.00;1.00;;;;;;6127971;23;20169;-67
2021/06/15 06:16:33;;;;;;;5.33;3.00;;;17.60;99.90;;;;;;6137788;23;20506;-68
2021/06/15 06:19:00;;;;;;;5.50;2.60;;;17.30;1.00;;;;;;6137482;23;20175;-66
2021/06/15 06:21:27;;;;;;;6.10;3.17;;;17.20;1.00;;;;;;6137650;23;20661;-66
2021/06/15 06:23:53;;;;;;;5.17;2.33;;;17.40;1.00;;;;;;6137652;23;20819;-65
2021/06/15 06:26:19;;;;;;;7.53;2.50;;;16.90;30.10;;;;;;6137396;23;20427;-66
2021/06/15 06:28:44;;;;;;;10.03;3.93;;;17.40;99.90;;;;;;6137728;23;20229;-66
2021/06/15 06:31:10;;;;;;;5.60;2.77;;;17.90;1.00;;;;;;6137579;23;20170;-66
2021/06/15 06:33:36;;;;;;;8.60;3.00;;;18.90;1.00;;;;;;6137611;23;20209;-66
2021/06/15 06:36:01;;;;;;;5.33;2.90;;;19.10;50.00;;;;;;6137290;23;20177;-67
2021/06/15 06:38:27;;;;;;;8.67;2.90;;;18.80;99.90;;;;;;6150819;23;20213;-66
2021/06/15 06:40:52;;;;;;;4.13;1.97;;;18.80;99.70;;;;;;6126344;23;20579;-66
2021/06/15 06:43:18;;;;;;;8.63;2.60;;;19.00;1.00;;;;;;6128094;23;20162;-66
2021/06/15 06:45:44;;;;;;;5.50;2.97;;;17.80;1.00;;;;;;6137544;23;20582;-66
2021/06/15 06:48:10;;;;;;;8.67;2.87;;;17.90;99.90;;;;;;6126833;23;20488;-66
2021/06/15 06:50:37;;;;;;;4.40;2.27;;;19.10;1.00;;;;;;6127395;23;20672;-68
2021/06/15 06:53:03;;;;;;;4.03;1.83;;;20.50;63.90;;;;;;6137070;23;20497;-67
2021/06/15 06:55:29;;;;;;;4.40;1.97;;;21.30;99.90;;;;;;6137536;23;20739;-67
2021/06/15 06:57:55;;;;;;;6.30;1.70;;;21.00;99.90;;;;;;6137223;23;20401;-66
2021/06/15 07:00:22;;;;;;;5.23;1.83;;;19.40;99.90;;;;;;6127738;23;20426;-66
2021/06/15 07:02:48;;;;;;;4.77;3.03;;;19.40;19.10;;;;;;6137501;23;20391;-67
2021/06/15 07:05:14;;;;;;;5.43;2.00;;;19.10;99.90;;;;;;6127796;23;20387;-67
2021/06/15 07:07:40;;;;;;;3.40;1.50;;;19.40;99.90;;;;;;6135460;23;20509;-71
2021/06/15 07:10:06;;;;;;;4.43;2.17;;;19.30;99.90;;;;;;6136437;23;20675;-69
2021/06/15 07:12:31;;;;;;;6.63;2.43;;;19.80;1.00;;;;;;6137186;23;20163;-68
2021/06/15 07:14:57;;;;;;;3.97;1.70;;;19.00;99.90;;;;;;6136826;23;20424;-66
2021/06/15 07:17:22;;;;;;;3.90;1.97;;;18.50;1.00;;;;;;6136943;23;20170;-66
2021/06/15 07:19:47;;;;;;;4.53;1.97;;;18.00;1.00;;;;;;6136786;23;20186;-69
2021/06/15 07:22:14;;;;;;;4.33;2.17;;;18.20;99.90;;;;;;6136961;23;20250;-68
2021/06/15 07:24:40;;;;;;;7.60;2.50;;;18.60;86.90;;;;;;6127083;23;20228;-66
2021/06/15 07:27:06;;;;;;;4.73;1.57;;;19.40;99.90;;;;;;6136874;23;20383;-67
2021/06/15 07:29:32;;;;;;;4.23;2.70;;;20.20;1.00;;;;;;6136492;23;20387;-67
2021/06/15 07:31:58;;;;;;;12.03;2.27;;;20.30;99.90;;;;;;6136842;23;20398;-67
2021/06/15 07:34:24;;;;;;;3.10;1.97;;;19.70;1.00;;;;;;6137004;23;20159;-71
2021/06/15 07:36:49;;;;;;;7.17;2.37;;;20.20;99.90;;;;;;6136576;23;20182;-69
2021/06/15 07:39:15;;;;;;;5.03;2.30;;;21.20;99.90;;;;;;6136678;23;20517;-69
2021/06/15 07:41:41;;;;;;;7.43;2.70;;;20.30;99.90;;;;;;6136770;23;20150;-71
2021/06/15 07:44:07;;;;;;;3.80;1.90;;;19.50;1.00;;;;;;6136007;23;20151;-72
2021/06/15 07:46:32;;;;;;;6.60;2.07;;;18.70;99.90;;;;;;6134804;23;20429;-71
2021/06/15 07:49:04;;;;;;;7.80;2.20;;;18.80;1.00;;;;;;6136254;23;20394;-71
2021/06/15 07:51:29;;;;;;;6.73;1.93;;;18.50;1.00;;;;;;6136902;23;20153;-68
2021/06/15 07:53:56;;;;;;;4.67;1.93;;;18.70;99.90;;;;;;6136885;23;20414;-69
2021/06/15 07:56:22;;;;;;;7.80;1.80;;;18.60;99.90;;;;;;6137241;23;20155;-68
2021/06/15 07:58:48;;;;;;;6.50;1.90;;;18.70;99.90;;;;;;6136340;23;20390;-69
2021/06/15 08:01:13;;;;;;;5.97;2.33;;;18.50;1.00;;;;;;6136533;23;20387;-68
2021/06/15 08:03:39;;;;;;;5.33;1.93;;;18.80;1.00;;;;;;6136564;23;20457;-68
2021/06/15 08:06:04;;;;;;;5.37;1.60;;;18.90;3.90;;;;;;6134925;23;20493;-65
2021/06/15 08:08:30;;;;;;;2.47;1.50;;;18.50;1.00;;;;;;6136624;23;20454;-68
2021/06/15 08:10:56;;;;;;;4.13;1.63;;;19.10;1.00;;;;;;6149772;23;20511;-69
2021/06/15 08:13:21;;;;;;;4.70;2.37;;;20.20;1.00;;;;;;6126746;23;20174;-67
2021/06/15 08:15:49;;;;;;;7.93;1.87;;;19.60;99.90;;;;;;6150166;23;20422;-68
2021/06/15 08:18:16;;;;;;;5.90;1.90;;;19.20;1.00;;;;;;6126608;23;20588;-66
2021/06/15 08:20:44;;;;;;;5.17;1.97;;;18.70;1.00;;;;;;6136637;23;20441;-67
2021/06/15 08:23:10;;;;;;;4.17;2.00;;;19.20;1.00;;;;;;6136602;23;20390;-65
2021/06/15 08:25:35;;;;;;;4.93;1.50;;;18.90;1.00;;;;;;6136666;23;20457;-65
2021/06/15 08:28:01;;;;;;;3.70;1.60;;;18.00;99.90;;;;;;6136487;23;20162;-67
2021/06/15 08:30:27;;;;;;;5.23;1.33;;;18.30;99.90;;;;;;6136254;23;20510;-65
2021/06/15 08:32:52;;;;;;;6.43;2.10;;;18.70;94.70;;;;;;6136662;23;20213;-67
2021/06/15 08:35:18;;;;;;;2.90;1.80;;;19.00;99.90;;;;;;6127059;23;20394;-68
2021/06/15 08:37:44;;;;;;;4.17;1.90;;;20.10;99.90;;;;;;6149877;23;20237;-69
2021/06/15 08:40:10;;;;;;;3.87;2.10;;;20.00;99.90;;;;;;6136291;23;20179;-67
2021/06/15 08:42:37;;;;;;;3.20;1.60;;;20.40;99.90;;;;;;6136442;23;20201;-69
2021/06/15 08:45:08;;;;;;;4.17;1.90;;;19.90;99.90;;;;;;6134939;23;20452;-65
2021/06/15 08:47:38;;;;;;;3.73;2.10;;;19.40;1.00;;;;;;6136401;23;20363;-69
2021/06/15 08:50:04;;;;;;;3.87;1.60;;;20.10;1.00;;;;;;6127096;23;20379;-65
2021/06/15 08:52:30;;;;;;;5.57;2.20;;;19.70;99.90;;;;;;6126889;23;20422;-65
2021/06/15 08:54:55;;;;;;;10.67;4.37;;;18.50;99.90;;;;;;6126782;23;20391;-65
2021/06/15 08:57:23;;;;;;;5.43;1.80;;;19.20;99.90;;;;;;6126118;23;20519;-65
2021/06/15 08:59:49;;;;;;;5.30;2.43;;;20.40;99.90;;;;;;6137303;23;20455;-65
2021/06/15 09:02:15;;;;;;;4.23;1.47;;;20.70;99.90;;;;;;6138262;23;20449;-65
2021/06/15 09:04:41;;;;;;;5.07;1.87;;;20.80;99.90;;;;;;6129016;23;20682;-71
2021/06/15 09:07:06;;;;;;;5.27;2.13;;;20.50;99.90;;;;;;6138402;23;20241;-67
2021/06/15 09:09:46;;;;;;;4.03;1.90;;;20.30;99.90;;;;;;6138302;23;20406;-68
2021/06/15 09:12:14;;;;;;;3.23;1.80;;;19.90;99.90;;;;;;6137873;23;20222;-68
2021/06/15 09:14:53;;;;;;;5.70;2.50;;;19.70;99.90;;;;;;6138145;23;20420;-67
2021/06/15 09:17:28;;;;;;;3.83;2.40;;;19.70;1.00;;;;;;6151368;23;20394;-66
2021/06/15 09:20:22;;;;;;;4.20;2.07;;;20.30;99.90;;;;;;6128157;23;20895;-67
2021/06/15 09:23:05;;;;;;;4.57;1.73;;;20.40;99.90;;;;;;6127270;23;20399;-67
2021/06/15 09:25:32;;;;;;;5.10;2.00;;;20.00;99.90;;;;;;6128717;23;20453;-67
2021/06/15 09:27:59;;;;;;;3.20;1.70;;;19.30;1.00;;;;;;6128380;23;20457;-68
2021/06/15 09:30:27;;;;;;;5.00;1.93;;;19.20;1.00;;;;;;6138157;23;20394;-68
2021/06/15 09:32:53;;;;;;;6.17;2.17;;;19.30;1.00;;;;;;6151566;23;20493;-67
2021/06/15 09:35:26;;;;;;;6.37;2.00;;;19.70;99.90;;;;;;6151606;23;20403;-68
2021/06/15 09:37:55;;;;;;;10.77;2.50;;;20.20;99.90;;;;;;6137921;23;20377;-67
2021/06/15 09:40:21;;;;;;;3.20;1.90;;;20.30;99.90;;;;;;6137531;23;20504;-68
2021/06/15 09:43:09;;;;;;;3.90;1.30;;;20.10;99.90;;;;;;6137955;23;20743;-70
2021/06/15 09:45:46;;;;;;;4.60;2.00;;;20.30;1.00;;;;;;6127972;23;20595;-67
2021/06/15 09:48:28;;;;;;;3.70;1.60;;;21.00;99.90;;;;;;6127751;23;20726;-66
2021/06/15 09:51:02;;;;;;;5.50;1.70;;;21.00;99.90;;;;;;6138108;23;20729;-67
2021/06/15 09:53:30;;;;;;;2.47;1.47;;;21.10;99.90;;;;;;6138039;23;20416;-68
2021/06/15 09:56:01;;;;;;;4.50;1.87;;;20.50;99.90;;;;;;6151435;23;20399;-68
2021/06/15 09:58:40;;;;;;;3.00;2.00;;;20.60;99.90;;;;;;6137668;23;20391;-69
2021/06/15 10:01:06;;;;;;;4.63;2.10;;;20.80;99.90;;;;;;6129177;23;20394;-68
2021/06/15 10:03:31;;;;;;;3.17;2.13;;;20.70;94.90;;;;;;6152036;23;20401;-66
2021/06/15 10:05:57;;;;;;;3.63;1.20;;;20.40;99.90;;;;;;6138256;23;20155;-67
2021/06/15 10:08:41;;;;;;;4.60;1.97;;;20.20;99.90;;;;;;6138207;23;20492;-66
2021/06/15 10:11:07;;;;;;;3.93;1.63;;;20.50;99.90;;;;;;6137887;23;20174;-69
2021/06/15 10:13:33;;;;;;;4.47;1.57;;;21.10;1.00;;;;;;6138435;23;20834;-71
2021/06/15 10:15:58;;;;;;;5.57;2.10;;;21.50;1.00;;;;;;6138256;23;20417;-69
2021/06/15 10:18:24;;;;;;;3.40;2.10;;;21.00;1.00;;;;;;6138076;23;20151;-67
2021/06/15 10:20:51;;;;;;;1.97;1.60;;;20.50;99.90;;;;;;6138131;23;20588;-68
2021/06/15 10:23:20;;;;;;;2.60;1.87;;;20.70;65.90;;;;;;6138435;23;20383;-67
2021/06/15 10:25:46;;;;;;;4.83;1.53;;;20.90;1.00;;;;;;6138264;23;20390;-69
2021/06/15 10:28:13;;;;;;;4.60;2.17;;;20.80;1.00;;;;;;6137270;23;20462;-69
2021/06/15 10:30:42;;;;;;;3.87;1.90;;;20.90;10.80;;;;;;6137934;23;20398;-69
2021/06/15 10:33:22;;;;;;;3.67;2.07;;;21.10;1.00;;;;;;6137687;23;20700;-69
2021/06/15 10:35:51;;;;;;;7.00;2.37;;;20.00;53.40;;;;;;6137769;23;20386;-71
2021/06/15 10:38:25;;;;;;;3.07;2.00;;;20.50;37.50;;;;;;6136862;23;21035;-70
2021/06/15 10:40:53;;;;;;;2.53;1.67;;;21.00;1.00;;;;;;6136975;23;20461;-70
2021/06/15 10:43:38;;;;;;;3.20;2.00;;;21.00;1.00;;;;;;6137332;23;20387;-70
2021/06/15 10:46:22;;;;;;;2.27;1.30;;;20.60;1.40;;;;;;6118786;23;20401;-70
2021/06/15 10:49:26;;;;;;;3.00;1.47;;;20.40;1.00;;;;;;6137406;23;20374;-70
2021/06/15 10:51:57;;;;;;;5.30;2.63;;;20.60;1.00;;;;;;6076821;23;20852;-70
2021/06/15 10:54:42;;;;;;;8.50;4.20;;;21.00;1.00;;;;;;6077234;23;20396;-69
2021/06/15 10:57:18;;;;;;;6.57;2.00;;;21.50;1.00;;;;;;6115233;23;20852;-67
2021/06/15 10:59:59;;;;;;;4.70;2.50;;;20.50;1.00;;;;;;6137682;23;20426;-69
2021/06/15 11:02:27;;;;;;;5.40;2.50;;;20.40;1.00;;;;;;6151224;23;20399;-69
2021/06/15 11:04:54;;;;;;;6.23;2.40;;;21.10;1.00;;;;;;6137800;23;20414;-70
2021/06/15 11:08:09;;;;;;;6.47;2.30;;;20.30;1.00;;;;;;6137216;23;20687;-67
2021/06/15 11:10:54;;;;;;;3.00;2.10;;;19.80;99.90;;;;;;6144125;23;20407;-71
2021/06/15 11:13:38;;;;;;;3.73;2.57;;;19.80;99.90;;;;;;6137265;23;20445;-69
2021/06/15 11:16:04;;;;;;;6.23;2.43;;;20.50;29.90;;;;;;6136980;23;20761;-68
2021/06/15 11:18:30;;;;;;;6.43;2.70;;;21.30;1.00;;;;;;6137033;23;20607;-69
2021/06/15 11:20:56;;;;;;;6.90;2.23;;;21.40;1.00;;;;;;6150489;23;20846;-69
2021/06/15 11:23:21;;;;;;;5.23;2.30;;;22.00;1.00;;;;;;6148826;23;20888;-68
2021/06/15 11:25:54;;;;;;;4.23;2.13;;;21.20;1.00;;;;;;6136619;23;20387;-68
2021/06/15 11:28:40;;;;;;;5.33;2.17;;;21.20;1.00;;;;;;6136549;23;20151;-68
2021/06/15 11:31:17;;;;;;;7.20;2.30;;;21.80;1.00;;;;;;6127382;23;20394;-70
2021/06/15 11:33:58;;;;;;;2.60;2.10;;;21.80;1.00;;;;;;6136559;23;20445;-67
2021/06/15 11:36:41;;;;;;;6.50;2.77;;;21.60;1.00;;;;;;6136849;23;20666;-65
2021/06/15 11:39:22;;;;;;;5.07;2.30;;;22.10;1.00;;;;;;6150034;23;20430;-66
2021/06/15 11:42:06;;;;;;;3.67;2.47;;;21.70;1.00;;;;;;6127338;23;20481;-70
2021/06/15 11:44:55;;;;;;;2.10;1.80;;;22.20;1.00;;;;;;6136936;23;20382;-70
2021/06/15 11:47:47;;;;;;;2.30;2.00;;;22.60;1.00;;;;;;6136765;23;20474;-71
2021/06/15 11:50:25;;;;;;;3.73;1.90;;;21.90;1.00;;;;;;6136653;23;20545;-68
2021/06/15 11:52:53;;;;;;;4.53;2.30;;;21.90;1.00;;;;;;6136523;23;20527;-69
2021/06/15 11:55:23;;;;;;;2.70;1.90;;;22.30;1.00;;;;;;6136983;23;20391;-72
2021/06/15 11:57:48;;;;;;;3.67;2.00;;;22.80;1.00;;;;;;6136963;23;20386;-71
2021/06/15 12:00:17;;;;;;;4.70;2.40;;;22.90;1.00;;;;;;6136250;23;20426;-68
2021/06/15 12:02:43;;;;;;;4.67;2.87;;;22.80;1.00;;;;;;6136447;23;20501;-67
2021/06/15 12:05:17;;;;;;;2.93;1.97;;;23.00;1.00;;;;;;6136411;23;20446;-66
2021/06/15 12:07:51;;;;;;;3.30;2.40;;;23.20;1.00;;;;;;6126838;23;20437;-67
2021/06/15 12:10:19;;;;;;;8.83;2.33;;;22.50;1.00;;;;;;6126559;23;20521;-68
2021/06/15 12:13:08;;;;;;;7.27;2.87;;;21.50;1.00;;;;;;6126961;23;20481;-68
2021/06/15 12:15:52;;;;;;;4.70;2.20;;;20.60;48.90;;;;;;6126371;23;20729;-71
2021/06/15 12:18:23;;;;;;;4.53;2.47;;;21.00;1.00;;;;;;6135929;23;20482;-69
2021/06/15 12:20:55;;;;;;;2.10;1.50;;;21.10;1.00;;;;;;6136162;23;20427;-67
2021/06/15 12:23:29;;;;;;;3.40;2.40;;;21.40;1.00;;;;;;6136684;23;20379;-68
2021/06/15 12:26:16;;;;;;;7.77;2.57;;;21.30;1.00;;;;;;6136664;23;20418;-68
2021/06/15 12:28:51;;;;;;;3.30;1.77;;;21.00;32.10;;;;;;6125694;23;20399;-68
2021/06/15 12:31:24;;;;;;;5.40;2.27;;;21.30;1.00;;;;;;6136339;23;20382;-67
2021/06/15 12:33:53;;;;;;;4.40;1.80;;;21.20;1.00;;;;;;6125361;23;20407;-65
2021/06/15 12:36:21;;;;;;;4.03;1.93;;;21.30;1.00;;;;;;6127114;23;20395;-67
2021/06/15 12:38:48;;;;;;;4.13;1.60;;;21.50;1.00;;;;;;6136187;23;20864;-67
2021/06/15 12:41:20;;;;;;;5.50;2.27;;;21.90;1.00;;;;;;6136483;23;20410;-68
2021/06/15 12:43:45;;;;;;;3.37;1.77;;;21.70;1.00;;;;;;6127262;23;20407;-68
2021/06/15 12:46:17;;;;;;;3.20;1.57;;;21.50;1.00;;;;;;6136263;23;20391;-66
2021/06/15 12:48:57;;;;;;;2.73;1.70;;;21.90;1.00;;;;;;6136204;23;20803;-67
2021/06/15 12:51:29;;;;;;;5.67;1.60;;;22.60;1.00;;;;;;6149777;23;20391;-67
2021/06/15 12:54:02;;;;;;;3.07;2.07;;;22.70;1.00;;;;;;6136705;23;20382;-69
2021/06/15 12:56:29;;;;;;;3.77;1.80;;;22.70;1.00;;;;;;6149838;23;20487;-69
2021/06/15 12:58:57;;;;;;;2.90;1.57;;;22.50;1.00;;;;;;6126018;23;20398;-67
2021/06/15 13:01:34;;;;;;;4.63;1.60;;;21.60;1.00;;;;;;6136327;23;20371;-68
2021/06/15 13:04:18;;;;;;;2.33;1.53;;;20.90;1.00;;;;;;6136339;23;20865;-69